sensor_id;sensor_type;location;lat;lon;timestamp;P1;durP1;ratioP1;P2;durP2;ratioP2
4424;SDS011;2225;53.568;13.266;2022-09-12T00:01:52;8.40;;;4.20;;
4424;SDS011;2225;53.568;13.266;2022-09-12T00:04:19;6.70;;;3.80;;
4424;SDS011;2225;53.568;13.266;2022-09-12T00:06:46;6.53;;;3.93;;
4424;SDS011;2225;53.568;13.266;2022-09-12T00:09:13;26.83;;;4.53;;
4424;SDS011;2225;53.568;13.266;2022-09-12T00:11:41;10.03;;;4.63;;
4424;SDS011;2225;53.568;13.266;2022-09-12T00:14:12;11.30;;;4.90;;
4424;SDS011;2225;53.568;13.266;2022-09-12T00:16:42;7.30;;;4.33;;
4424;SDS011;2225;53.568;13.266;2022-09-12T00:19:10;9.50;;;5.03;;
4424;SDS011;2225;53.568;13.266;2022-09-12T00:21:38;9.00;;;4.67;;
4424;SDS011;2225;53.568;13.266;2022-09-12T00:24:05;7.83;;;4.60;;
4424;SDS011;2225;53.568;13.266;2022-09-12T00:26:33;11.33;;;5.30;;
4424;SDS011;2225;53.568;13.266;2022-09-12T00:29:01;9.03;;;4.23;;
4424;SDS011;2225;53.568;13.266;2022-09-12T00:31:28;8.90;;;4.90;;
4424;SDS011;2225;53.568;13.266;2022-09-12T00:33:57;13.40;;;5.50;;
4424;SDS011;2225;53.568;13.266;2022-09-12T00:36:26;8.40;;;4.87;;
4424;SDS011;2225;53.568;13.266;2022-09-12T00:38:54;9.77;;;5.23;;
4424;SDS011;2225;53.568;13.266;2022-09-12T00:41:25;10.93;;;5.53;;
4424;SDS011;2225;53.568;13.266;2022-09-12T00:43:57;8.40;;;5.10;;
4424;SDS011;2225;53.568;13.266;2022-09-12T00:49:11;11.03;;;6.30;;
4424;SDS011;2225;53.568;13.266;2022-09-12T00:51:46;12.53;;;5.90;;
4424;SDS011;2225;53.568;13.266;2022-09-12T00:57:55;11.00;;;5.87;;
4424;SDS011;2225;53.568;13.266;2022-09-12T01:00:33;10.27;;;5.10;;
4424;SDS011;2225;53.568;13.266;2022-09-12T01:03:02;11.90;;;5.63;;
4424;SDS011;2225;53.568;13.266;2022-09-12T01:05:33;9.43;;;5.30;;
4424;SDS011;2225;53.568;13.266;2022-09-12T01:08:05;19.07;;;6.47;;
4424;SDS011;2225;53.568;13.266;2022-09-12T01:10:33;10.77;;;6.10;;
4424;SDS011;2225;53.568;13.266;2022-09-12T01:13:06;16.23;;;7.20;;
4424;SDS011;2225;53.568;13.266;2022-09-12T01:15:38;9.40;;;6.07;;
4424;SDS011;2225;53.568;13.266;2022-09-12T01:20:53;12.63;;;5.90;;
4424;SDS011;2225;53.568;13.266;2022-09-12T01:24:07;10.80;;;6.00;;
4424;SDS011;2225;53.568;13.266;2022-09-12T01:38:37;10.63;;;6.13;;
4424;SDS011;2225;53.568;13.266;2022-09-12T01:41:34;9.07;;;5.87;;
4424;SDS011;2225;53.568;13.266;2022-09-12T01:44:20;8.87;;;5.77;;
4424;SDS011;2225;53.568;13.266;2022-09-12T01:47:21;19.87;;;6.53;;
4424;SDS011;2225;53.568;13.266;2022-09-12T01:50:01;11.00;;;5.13;;
4424;SDS011;2225;53.568;13.266;2022-09-12T01:52:47;8.60;;;5.77;;
4424;SDS011;2225;53.568;13.266;2022-09-12T01:55:40;15.80;;;5.77;;
4424;SDS011;2225;53.568;13.266;2022-09-12T01:58:19;9.80;;;5.67;;
4424;SDS011;2225;53.568;13.266;2022-09-12T02:00:57;9.43;;;6.10;;
4424;SDS011;2225;53.568;13.266;2022-09-12T02:03:33;12.50;;;6.20;;
4424;SDS011;2225;53.568;13.266;2022-09-12T02:06:29;15.30;;;5.67;;
4424;SDS011;2225;53.568;13.266;2022-09-12T02:09:04;12.20;;;5.70;;
4424;SDS011;2225;53.568;13.266;2022-09-12T02:11:39;10.17;;;5.07;;
4424;SDS011;2225;53.568;13.266;2022-09-12T02:14:11;16.13;;;6.13;;
4424;SDS011;2225;53.568;13.266;2022-09-12T02:16:44;12.60;;;6.60;;
4424;SDS011;2225;53.568;13.266;2022-09-12T02:19:17;11.80;;;5.73;;
4424;SDS011;2225;53.568;13.266;2022-09-12T02:21:52;13.13;;;5.70;;
4424;SDS011;2225;53.568;13.266;2022-09-12T02:24:24;9.93;;;5.30;;
4424;SDS011;2225;53.568;13.266;2022-09-12T02:26:59;13.73;;;5.30;;
4424;SDS011;2225;53.568;13.266;2022-09-12T02:29:49;11.30;;;5.57;;
4424;SDS011;2225;53.568;13.266;2022-09-12T02:32:23;10.13;;;5.97;;
4424;SDS011;2225;53.568;13.266;2022-09-12T02:35:04;14.63;;;6.73;;
4424;SDS011;2225;53.568;13.266;2022-09-12T02:40:29;8.60;;;5.17;;
4424;SDS011;2225;53.568;13.266;2022-09-12T02:42:58;7.57;;;4.73;;
4424;SDS011;2225;53.568;13.266;2022-09-12T02:45:26;9.87;;;5.13;;
4424;SDS011;2225;53.568;13.266;2022-09-12T02:47:58;8.90;;;5.40;;
4424;SDS011;2225;53.568;13.266;2022-09-12T02:50:38;14.03;;;5.17;;
4424;SDS011;2225;53.568;13.266;2022-09-12T02:53:07;9.13;;;5.50;;
4424;SDS011;2225;53.568;13.266;2022-09-12T02:55:36;9.20;;;5.93;;
4424;SDS011;2225;53.568;13.266;2022-09-12T02:58:07;10.50;;;6.00;;
4424;SDS011;2225;53.568;13.266;2022-09-12T03:06:56;9.97;;;6.00;;
4424;SDS011;2225;53.568;13.266;2022-09-12T03:12:46;10.40;;;5.80;;
4424;SDS011;2225;53.568;13.266;2022-09-12T03:18:30;11.27;;;5.57;;
4424;SDS011;2225;53.568;13.266;2022-09-12T03:21:32;9.93;;;6.40;;
4424;SDS011;2225;53.568;13.266;2022-09-12T03:24:25;11.60;;;6.50;;
4424;SDS011;2225;53.568;13.266;2022-09-12T03:27:11;9.07;;;5.87;;
4424;SDS011;2225;53.568;13.266;2022-09-12T03:29:43;10.03;;;5.83;;
4424;SDS011;2225;53.568;13.266;2022-09-12T03:32:13;11.53;;;6.60;;
4424;SDS011;2225;53.568;13.266;2022-09-12T03:34:40;9.13;;;6.00;;
4424;SDS011;2225;53.568;13.266;2022-09-12T03:37:08;11.53;;;6.80;;
4424;SDS011;2225;53.568;13.266;2022-09-12T03:39:35;10.30;;;6.70;;
4424;SDS011;2225;53.568;13.266;2022-09-12T03:42:02;10.80;;;7.17;;
4424;SDS011;2225;53.568;13.266;2022-09-12T03:44:29;11.17;;;6.60;;
4424;SDS011;2225;53.568;13.266;2022-09-12T03:46:56;10.63;;;6.67;;
4424;SDS011;2225;53.568;13.266;2022-09-12T03:49:23;10.50;;;6.50;;
4424;SDS011;2225;53.568;13.266;2022-09-12T03:51:49;11.33;;;6.70;;
4424;SDS011;2225;53.568;13.266;2022-09-12T03:54:16;10.50;;;6.40;;
4424;SDS011;2225;53.568;13.266;2022-09-12T03:56:43;11.20;;;6.27;;
4424;SDS011;2225;53.568;13.266;2022-09-12T03:59:10;12.77;;;7.73;;
4424;SDS011;2225;53.568;13.266;2022-09-12T04:01:37;11.30;;;7.70;;
4424;SDS011;2225;53.568;13.266;2022-09-12T04:04:04;16.40;;;7.40;;
4424;SDS011;2225;53.568;13.266;2022-09-12T04:06:31;11.47;;;7.17;;
4424;SDS011;2225;53.568;13.266;2022-09-12T04:08:58;10.00;;;7.10;;
4424;SDS011;2225;53.568;13.266;2022-09-12T04:11:24;11.70;;;8.10;;
4424;SDS011;2225;53.568;13.266;2022-09-12T04:13:51;12.73;;;7.33;;
4424;SDS011;2225;53.568;13.266;2022-09-12T04:16:19;11.40;;;7.67;;
4424;SDS011;2225;53.568;13.266;2022-09-12T04:18:46;11.90;;;7.97;;
4424;SDS011;2225;53.568;13.266;2022-09-12T04:21:15;16.00;;;7.83;;
4424;SDS011;2225;53.568;13.266;2022-09-12T04:23:44;12.40;;;8.00;;
4424;SDS011;2225;53.568;13.266;2022-09-12T04:26:12;14.17;;;7.53;;
4424;SDS011;2225;53.568;13.266;2022-09-12T04:28:40;14.00;;;8.20;;
4424;SDS011;2225;53.568;13.266;2022-09-12T04:31:08;13.50;;;8.00;;
4424;SDS011;2225;53.568;13.266;2022-09-12T04:33:40;12.63;;;8.50;;
4424;SDS011;2225;53.568;13.266;2022-09-12T04:36:09;15.60;;;8.90;;
4424;SDS011;2225;53.568;13.266;2022-09-12T04:38:42;14.53;;;9.50;;
4424;SDS011;2225;53.568;13.266;2022-09-12T04:43:43;13.20;;;9.13;;
4424;SDS011;2225;53.568;13.266;2022-09-12T04:46:12;14.50;;;9.20;;
4424;SDS011;2225;53.568;13.266;2022-09-12T04:48:42;12.97;;;8.70;;
4424;SDS011;2225;53.568;13.266;2022-09-12T04:51:10;14.07;;;9.00;;
4424;SDS011;2225;53.568;13.266;2022-09-12T04:53:47;12.27;;;8.27;;
4424;SDS011;2225;53.568;13.266;2022-09-12T04:56:19;13.60;;;9.10;;
4424;SDS011;2225;53.568;13.266;2022-09-12T04:58:47;16.10;;;9.53;;
4424;SDS011;2225;53.568;13.266;2022-09-12T05:01:18;16.33;;;9.30;;
4424;SDS011;2225;53.568;13.266;2022-09-12T05:03:47;23.83;;;9.10;;
4424;SDS011;2225;53.568;13.266;2022-09-12T05:06:19;13.73;;;8.90;;
4424;SDS011;2225;53.568;13.266;2022-09-12T05:08:49;22.53;;;11.17;;
4424;SDS011;2225;53.568;13.266;2022-09-12T05:11:22;19.30;;;11.60;;
4424;SDS011;2225;53.568;13.266;2022-09-12T05:14:11;24.33;;;13.60;;
4424;SDS011;2225;53.568;13.266;2022-09-12T05:16:39;22.07;;;13.40;;
4424;SDS011;2225;53.568;13.266;2022-09-12T05:19:06;28.70;;;15.97;;
4424;SDS011;2225;53.568;13.266;2022-09-12T05:21:34;28.33;;;16.30;;
4424;SDS011;2225;53.568;13.266;2022-09-12T05:24:01;121.47;;;16.47;;
4424;SDS011;2225;53.568;13.266;2022-09-12T05:26:30;43.20;;;14.40;;
4424;SDS011;2225;53.568;13.266;2022-09-12T05:28:57;69.90;;;14.90;;
4424;SDS011;2225;53.568;13.266;2022-09-12T05:31:25;53.30;;;12.60;;
4424;SDS011;2225;53.568;13.266;2022-09-12T05:33:53;108.73;;;12.63;;
4424;SDS011;2225;53.568;13.266;2022-09-12T05:36:22;43.10;;;12.80;;
4424;SDS011;2225;53.568;13.266;2022-09-12T05:38:54;32.87;;;11.27;;
4424;SDS011;2225;53.568;13.266;2022-09-12T05:41:23;38.30;;;11.90;;
4424;SDS011;2225;53.568;13.266;2022-09-12T05:43:52;91.63;;;13.70;;
4424;SDS011;2225;53.568;13.266;2022-09-12T05:46:23;41.17;;;14.07;;
4424;SDS011;2225;53.568;13.266;2022-09-12T05:48:54;45.80;;;13.20;;
4424;SDS011;2225;53.568;13.266;2022-09-12T05:51:23;54.77;;;11.60;;
4424;SDS011;2225;53.568;13.266;2022-09-12T05:53:53;50.43;;;11.43;;
4424;SDS011;2225;53.568;13.266;2022-09-12T05:56:24;47.73;;;12.03;;
4424;SDS011;2225;53.568;13.266;2022-09-12T05:58:55;57.07;;;11.47;;
4424;SDS011;2225;53.568;13.266;2022-09-12T06:01:30;28.60;;;9.30;;
4424;SDS011;2225;53.568;13.266;2022-09-12T06:04:00;17.87;;;9.60;;
4424;SDS011;2225;53.568;13.266;2022-09-12T06:06:30;29.10;;;10.43;;
4424;SDS011;2225;53.568;13.266;2022-09-12T06:09:02;34.10;;;10.60;;
4424;SDS011;2225;53.568;13.266;2022-09-12T06:11:31;47.47;;;12.63;;
4424;SDS011;2225;53.568;13.266;2022-09-12T06:14:02;30.03;;;11.53;;
4424;SDS011;2225;53.568;13.266;2022-09-12T06:16:30;107.80;;;12.67;;
4424;SDS011;2225;53.568;13.266;2022-09-12T06:19:00;19.40;;;10.63;;
4424;SDS011;2225;53.568;13.266;2022-09-12T06:21:31;26.27;;;11.33;;
4424;SDS011;2225;53.568;13.266;2022-09-12T06:24:00;45.20;;;11.40;;
4424;SDS011;2225;53.568;13.266;2022-09-12T06:26:27;44.07;;;12.00;;
4424;SDS011;2225;53.568;13.266;2022-09-12T06:28:55;72.33;;;12.63;;
4424;SDS011;2225;53.568;13.266;2022-09-12T06:31:29;101.37;;;13.60;;
4424;SDS011;2225;53.568;13.266;2022-09-12T06:33:59;78.17;;;13.73;;
4424;SDS011;2225;53.568;13.266;2022-09-12T06:36:30;29.73;;;11.60;;
4424;SDS011;2225;53.568;13.266;2022-09-12T06:39:02;92.23;;;10.87;;
4424;SDS011;2225;53.568;13.266;2022-09-12T06:41:41;122.90;;;10.90;;
4424;SDS011;2225;53.568;13.266;2022-09-12T06:44:11;39.13;;;11.10;;
4424;SDS011;2225;53.568;13.266;2022-09-12T06:46:43;99.57;;;11.37;;
4424;SDS011;2225;53.568;13.266;2022-09-12T06:49:10;21.87;;;11.00;;
4424;SDS011;2225;53.568;13.266;2022-09-12T06:51:38;51.67;;;13.23;;
4424;SDS011;2225;53.568;13.266;2022-09-12T06:54:06;41.70;;;14.07;;
4424;SDS011;2225;53.568;13.266;2022-09-12T06:56:35;137.07;;;13.67;;
4424;SDS011;2225;53.568;13.266;2022-09-12T06:59:02;87.67;;;14.53;;
4424;SDS011;2225;53.568;13.266;2022-09-12T07:01:30;110.60;;;12.87;;
4424;SDS011;2225;53.568;13.266;2022-09-12T07:03:58;61.23;;;12.27;;
4424;SDS011;2225;53.568;13.266;2022-09-12T07:06:29;91.90;;;13.13;;
4424;SDS011;2225;53.568;13.266;2022-09-12T07:09:02;26.40;;;12.60;;
4424;SDS011;2225;53.568;13.266;2022-09-12T07:11:32;92.87;;;12.93;;
4424;SDS011;2225;53.568;13.266;2022-09-12T07:14:02;29.20;;;12.23;;
4424;SDS011;2225;53.568;13.266;2022-09-12T07:16:30;43.03;;;13.67;;
4424;SDS011;2225;53.568;13.266;2022-09-12T07:18:59;21.87;;;12.93;;
4424;SDS011;2225;53.568;13.266;2022-09-12T07:21:27;36.63;;;12.70;;
4424;SDS011;2225;53.568;13.266;2022-09-12T07:23:55;34.73;;;12.17;;
4424;SDS011;2225;53.568;13.266;2022-09-12T07:26:24;16.77;;;11.40;;
4424;SDS011;2225;53.568;13.266;2022-09-12T07:28:53;24.03;;;11.43;;
4424;SDS011;2225;53.568;13.266;2022-09-12T07:31:42;16.77;;;10.67;;
4424;SDS011;2225;53.568;13.266;2022-09-12T07:34:09;20.10;;;12.23;;
4424;SDS011;2225;53.568;13.266;2022-09-12T07:36:36;20.97;;;12.20;;
4424;SDS011;2225;53.568;13.266;2022-09-12T07:39:04;20.00;;;10.77;;
4424;SDS011;2225;53.568;13.266;2022-09-12T07:41:31;20.10;;;10.70;;
4424;SDS011;2225;53.568;13.266;2022-09-12T07:44:01;31.13;;;10.80;;
4424;SDS011;2225;53.568;13.266;2022-09-12T07:46:31;14.33;;;10.37;;
4424;SDS011;2225;53.568;13.266;2022-09-12T07:48:59;14.07;;;9.20;;
4424;SDS011;2225;53.568;13.266;2022-09-12T07:51:27;14.70;;;9.80;;
4424;SDS011;2225;53.568;13.266;2022-09-12T07:53:55;12.40;;;9.30;;
4424;SDS011;2225;53.568;13.266;2022-09-12T07:56:22;13.20;;;9.40;;
4424;SDS011;2225;53.568;13.266;2022-09-12T07:58:55;13.17;;;9.50;;
4424;SDS011;2225;53.568;13.266;2022-09-12T08:01:22;10.53;;;7.93;;
4424;SDS011;2225;53.568;13.266;2022-09-12T08:03:52;12.27;;;7.53;;
4424;SDS011;2225;53.568;13.266;2022-09-12T08:06:22;13.10;;;8.67;;
4424;SDS011;2225;53.568;13.266;2022-09-12T08:08:51;13.27;;;8.43;;
4424;SDS011;2225;53.568;13.266;2022-09-12T08:11:21;11.33;;;8.03;;
4424;SDS011;2225;53.568;13.266;2022-09-12T08:13:49;13.10;;;7.93;;
4424;SDS011;2225;53.568;13.266;2022-09-12T08:16:22;11.90;;;7.80;;
4424;SDS011;2225;53.568;13.266;2022-09-12T08:18:56;12.40;;;7.67;;
4424;SDS011;2225;53.568;13.266;2022-09-12T08:21:24;8.97;;;6.03;;
4424;SDS011;2225;53.568;13.266;2022-09-12T08:23:54;9.20;;;6.70;;
4424;SDS011;2225;53.568;13.266;2022-09-12T08:26:24;8.87;;;5.60;;
4424;SDS011;2225;53.568;13.266;2022-09-12T08:28:51;8.20;;;5.90;;
4424;SDS011;2225;53.568;13.266;2022-09-12T08:31:19;11.43;;;6.53;;
4424;SDS011;2225;53.568;13.266;2022-09-12T08:33:49;8.13;;;5.67;;
4424;SDS011;2225;53.568;13.266;2022-09-12T08:36:21;9.70;;;6.40;;
4424;SDS011;2225;53.568;13.266;2022-09-12T08:38:53;9.20;;;6.10;;
4424;SDS011;2225;53.568;13.266;2022-09-12T08:44:17;8.50;;;5.60;;
4424;SDS011;2225;53.568;13.266;2022-09-12T08:50:05;10.97;;;7.00;;
4424;SDS011;2225;53.568;13.266;2022-09-12T08:58:25;11.37;;;5.50;;
4424;SDS011;2225;53.568;13.266;2022-09-12T09:00:57;7.00;;;4.63;;
4424;SDS011;2225;53.568;13.266;2022-09-12T09:04:09;7.70;;;4.63;;
4424;SDS011;2225;53.568;13.266;2022-09-12T09:06:50;7.67;;;4.40;;
4424;SDS011;2225;53.568;13.266;2022-09-12T09:12:50;9.30;;;4.40;;
4424;SDS011;2225;53.568;13.266;2022-09-12T09:18:27;8.00;;;4.47;;
4424;SDS011;2225;53.568;13.266;2022-09-12T09:24:17;10.00;;;6.47;;
4424;SDS011;2225;53.568;13.266;2022-09-12T09:26:49;9.87;;;5.57;;
4424;SDS011;2225;53.568;13.266;2022-09-12T09:29:23;9.87;;;5.43;;
4424;SDS011;2225;53.568;13.266;2022-09-12T09:31:57;9.03;;;3.80;;
4424;SDS011;2225;53.568;13.266;2022-09-12T09:34:29;8.70;;;5.07;;
4424;SDS011;2225;53.568;13.266;2022-09-12T09:37:06;7.30;;;4.60;;
4424;SDS011;2225;53.568;13.266;2022-09-12T09:39:48;10.80;;;3.40;;
4424;SDS011;2225;53.568;13.266;2022-09-12T09:42:52;8.17;;;4.23;;
4424;SDS011;2225;53.568;13.266;2022-09-12T09:45:29;8.70;;;4.60;;
4424;SDS011;2225;53.568;13.266;2022-09-12T09:47:59;7.43;;;3.83;;
4424;SDS011;2225;53.568;13.266;2022-09-12T09:50:49;8.70;;;4.70;;
4424;SDS011;2225;53.568;13.266;2022-09-12T09:53:23;6.23;;;2.80;;
4424;SDS011;2225;53.568;13.266;2022-09-12T09:56:01;7.63;;;2.57;;
4424;SDS011;2225;53.568;13.266;2022-09-12T09:59:08;5.50;;;2.67;;
4424;SDS011;2225;53.568;13.266;2022-09-12T10:02:00;5.60;;;2.90;;
4424;SDS011;2225;53.568;13.266;2022-09-12T10:04:40;8.00;;;3.63;;
4424;SDS011;2225;53.568;13.266;2022-09-12T10:07:20;5.73;;;3.10;;
4424;SDS011;2225;53.568;13.266;2022-09-12T10:10:05;8.63;;;3.33;;
4424;SDS011;2225;53.568;13.266;2022-09-12T10:12:41;5.50;;;2.90;;
4424;SDS011;2225;53.568;13.266;2022-09-12T10:15:21;6.20;;;2.90;;
4424;SDS011;2225;53.568;13.266;2022-09-12T10:17:51;7.00;;;3.00;;
4424;SDS011;2225;53.568;13.266;2022-09-12T10:23:33;6.03;;;2.63;;
4424;SDS011;2225;53.568;13.266;2022-09-12T10:26:04;6.40;;;2.47;;
4424;SDS011;2225;53.568;13.266;2022-09-12T10:31:05;7.50;;;2.53;;
4424;SDS011;2225;53.568;13.266;2022-09-12T10:33:35;4.67;;;1.50;;
4424;SDS011;2225;53.568;13.266;2022-09-12T10:36:09;5.00;;;1.77;;
4424;SDS011;2225;53.568;13.266;2022-09-12T10:38:37;4.60;;;1.87;;
4424;SDS011;2225;53.568;13.266;2022-09-12T10:41:04;5.23;;;1.80;;
4424;SDS011;2225;53.568;13.266;2022-09-12T10:43:35;7.43;;;2.00;;
4424;SDS011;2225;53.568;13.266;2022-09-12T10:48:46;4.83;;;1.80;;
4424;SDS011;2225;53.568;13.266;2022-09-12T10:53:52;5.13;;;1.90;;
4424;SDS011;2225;53.568;13.266;2022-09-12T10:56:31;6.23;;;2.03;;
4424;SDS011;2225;53.568;13.266;2022-09-12T10:59:55;5.73;;;1.80;;
4424;SDS011;2225;53.568;13.266;2022-09-12T11:05:56;4.97;;;1.83;;
4424;SDS011;2225;53.568;13.266;2022-09-12T11:08:39;4.30;;;1.37;;
4424;SDS011;2225;53.568;13.266;2022-09-12T11:14:40;5.40;;;1.70;;
4424;SDS011;2225;53.568;13.266;2022-09-12T11:25:45;4.33;;;1.53;;
4424;SDS011;2225;53.568;13.266;2022-09-12T11:28:24;5.77;;;1.80;;
4424;SDS011;2225;53.568;13.266;2022-09-12T11:34:27;4.10;;;1.60;;
4424;SDS011;2225;53.568;13.266;2022-09-12T11:37:35;4.03;;;1.67;;
4424;SDS011;2225;53.568;13.266;2022-09-12T11:40:42;5.83;;;2.10;;
4424;SDS011;2225;53.568;13.266;2022-09-12T11:49:08;4.30;;;1.67;;
4424;SDS011;2225;53.568;13.266;2022-09-12T11:51:51;4.10;;;1.70;;
4424;SDS011;2225;53.568;13.266;2022-09-12T11:54:27;4.83;;;2.03;;
4424;SDS011;2225;53.568;13.266;2022-09-12T12:03:21;4.27;;;2.00;;
4424;SDS011;2225;53.568;13.266;2022-09-12T12:06:06;4.97;;;1.93;;
4424;SDS011;2225;53.568;13.266;2022-09-12T12:08:44;4.70;;;2.10;;
4424;SDS011;2225;53.568;13.266;2022-09-12T12:11:14;4.17;;;1.77;;
4424;SDS011;2225;53.568;13.266;2022-09-12T12:16:48;6.07;;;1.77;;
4424;SDS011;2225;53.568;13.266;2022-09-12T12:21:43;5.97;;;2.23;;
4424;SDS011;2225;53.568;13.266;2022-09-12T12:24:20;7.23;;;3.00;;
4424;SDS011;2225;53.568;13.266;2022-09-12T12:52:49;5.07;;;1.80;;
4424;SDS011;2225;53.568;13.266;2022-09-12T13:01:14;4.50;;;1.83;;
4424;SDS011;2225;53.568;13.266;2022-09-12T13:03:45;5.40;;;1.60;;
4424;SDS011;2225;53.568;13.266;2022-09-12T13:06:36;5.10;;;1.93;;
4424;SDS011;2225;53.568;13.266;2022-09-12T13:09:44;3.90;;;1.60;;
4424;SDS011;2225;53.568;13.266;2022-09-12T13:12:18;7.50;;;2.00;;
4424;SDS011;2225;53.568;13.266;2022-09-12T13:14:56;4.47;;;2.23;;
4424;SDS011;2225;53.568;13.266;2022-09-12T13:17:38;4.53;;;1.90;;
4424;SDS011;2225;53.568;13.266;2022-09-12T13:22:55;8.33;;;2.20;;
4424;SDS011;2225;53.568;13.266;2022-09-12T13:30:36;5.37;;;2.27;;
4424;SDS011;2225;53.568;13.266;2022-09-12T13:33:10;5.70;;;2.00;;
4424;SDS011;2225;53.568;13.266;2022-09-12T13:39:04;5.30;;;1.80;;
4424;SDS011;2225;53.568;13.266;2022-09-12T13:47:40;5.27;;;1.77;;
4424;SDS011;2225;53.568;13.266;2022-09-12T13:50:16;4.40;;;2.00;;
4424;SDS011;2225;53.568;13.266;2022-09-12T13:52:54;7.33;;;2.00;;
4424;SDS011;2225;53.568;13.266;2022-09-12T13:57:59;4.00;;;1.70;;
4424;SDS011;2225;53.568;13.266;2022-09-12T14:00:29;5.67;;;1.90;;
4424;SDS011;2225;53.568;13.266;2022-09-12T14:02:58;5.50;;;1.80;;
4424;SDS011;2225;53.568;13.266;2022-09-12T14:05:45;6.87;;;2.10;;
4424;SDS011;2225;53.568;13.266;2022-09-12T14:08:20;14.57;;;1.80;;
4424;SDS011;2225;53.568;13.266;2022-09-12T14:10:49;4.97;;;1.83;;
4424;SDS011;2225;53.568;13.266;2022-09-12T14:13:19;5.13;;;1.80;;
4424;SDS011;2225;53.568;13.266;2022-09-12T14:15:52;4.70;;;1.87;;
4424;SDS011;2225;53.568;13.266;2022-09-12T14:18:22;7.03;;;2.00;;
4424;SDS011;2225;53.568;13.266;2022-09-12T14:20:55;5.00;;;1.63;;
4424;SDS011;2225;53.568;13.266;2022-09-12T14:23:30;5.30;;;1.87;;
4424;SDS011;2225;53.568;13.266;2022-09-12T14:26:02;6.30;;;1.77;;
4424;SDS011;2225;53.568;13.266;2022-09-12T14:28:31;5.30;;;1.80;;
4424;SDS011;2225;53.568;13.266;2022-09-12T14:31:03;6.50;;;2.00;;
4424;SDS011;2225;53.568;13.266;2022-09-12T14:33:45;5.60;;;1.40;;
4424;SDS011;2225;53.568;13.266;2022-09-12T14:36:16;4.87;;;2.00;;
4424;SDS011;2225;53.568;13.266;2022-09-12T14:39:00;4.10;;;1.60;;
4424;SDS011;2225;53.568;13.266;2022-09-12T14:41:34;4.90;;;2.30;;
4424;SDS011;2225;53.568;13.266;2022-09-12T14:44:05;6.93;;;1.50;;
4424;SDS011;2225;53.568;13.266;2022-09-12T14:46:42;4.90;;;1.73;;
4424;SDS011;2225;53.568;13.266;2022-09-12T14:49:14;6.63;;;2.00;;
4424;SDS011;2225;53.568;13.266;2022-09-12T14:51:54;9.70;;;2.10;;
4424;SDS011;2225;53.568;13.266;2022-09-12T14:57:02;4.20;;;1.67;;
4424;SDS011;2225;53.568;13.266;2022-09-12T14:59:37;6.00;;;1.73;;
4424;SDS011;2225;53.568;13.266;2022-09-12T15:07:35;4.17;;;1.77;;
4424;SDS011;2225;53.568;13.266;2022-09-12T15:10:06;4.87;;;1.70;;
4424;SDS011;2225;53.568;13.266;2022-09-12T15:15:37;4.80;;;1.83;;
4424;SDS011;2225;53.568;13.266;2022-09-12T15:18:10;3.70;;;1.37;;
4424;SDS011;2225;53.568;13.266;2022-09-12T15:20:37;4.33;;;1.30;;
4424;SDS011;2225;53.568;13.266;2022-09-12T15:23:06;3.77;;;1.40;;
4424;SDS011;2225;53.568;13.266;2022-09-12T15:25:41;5.90;;;2.07;;
4424;SDS011;2225;53.568;13.266;2022-09-12T15:28:12;4.20;;;1.70;;
4424;SDS011;2225;53.568;13.266;2022-09-12T15:30:43;9.00;;;1.90;;
4424;SDS011;2225;53.568;13.266;2022-09-12T15:33:12;5.53;;;1.90;;
4424;SDS011;2225;53.568;13.266;2022-09-12T15:35:39;4.70;;;1.53;;
4424;SDS011;2225;53.568;13.266;2022-09-12T15:38:06;6.90;;;2.00;;
4424;SDS011;2225;53.568;13.266;2022-09-12T15:40:33;6.40;;;1.90;;
4424;SDS011;2225;53.568;13.266;2022-09-12T15:43:00;4.53;;;1.90;;
4424;SDS011;2225;53.568;13.266;2022-09-12T15:45:29;5.10;;;2.33;;
4424;SDS011;2225;53.568;13.266;2022-09-12T15:47:58;4.67;;;2.00;;
4424;SDS011;2225;53.568;13.266;2022-09-12T15:50:27;6.60;;;2.13;;
4424;SDS011;2225;53.568;13.266;2022-09-12T15:52:55;4.23;;;2.10;;
4424;SDS011;2225;53.568;13.266;2022-09-12T15:55:31;4.87;;;1.80;;
4424;SDS011;2225;53.568;13.266;2022-09-12T15:57:58;4.53;;;1.67;;
4424;SDS011;2225;53.568;13.266;2022-09-12T16:00:31;5.40;;;1.80;;
4424;SDS011;2225;53.568;13.266;2022-09-12T16:02:58;6.83;;;4.03;;
4424;SDS011;2225;53.568;13.266;2022-09-12T16:05:26;7.07;;;3.50;;
4424;SDS011;2225;53.568;13.266;2022-09-12T16:07:53;8.73;;;3.40;;
4424;SDS011;2225;53.568;13.266;2022-09-12T16:10:22;6.57;;;2.70;;
4424;SDS011;2225;53.568;13.266;2022-09-12T16:12:55;5.60;;;2.20;;
4424;SDS011;2225;53.568;13.266;2022-09-12T16:15:23;6.80;;;2.30;;
4424;SDS011;2225;53.568;13.266;2022-09-12T16:17:51;10.70;;;7.33;;
4424;SDS011;2225;53.568;13.266;2022-09-12T16:20:18;8.10;;;5.00;;
4424;SDS011;2225;53.568;13.266;2022-09-12T16:22:47;10.20;;;4.20;;
4424;SDS011;2225;53.568;13.266;2022-09-12T16:25:14;5.33;;;2.93;;
4424;SDS011;2225;53.568;13.266;2022-09-12T16:27:42;5.57;;;2.80;;
4424;SDS011;2225;53.568;13.266;2022-09-12T16:30:10;7.80;;;1.93;;
4424;SDS011;2225;53.568;13.266;2022-09-12T16:32:38;4.87;;;1.80;;
4424;SDS011;2225;53.568;13.266;2022-09-12T16:35:05;5.10;;;1.83;;
4424;SDS011;2225;53.568;13.266;2022-09-12T16:37:32;5.50;;;2.37;;
4424;SDS011;2225;53.568;13.266;2022-09-12T16:40:00;4.30;;;1.70;;
4424;SDS011;2225;53.568;13.266;2022-09-12T16:42:29;5.30;;;2.10;;
4424;SDS011;2225;53.568;13.266;2022-09-12T16:44:56;4.10;;;1.80;;
4424;SDS011;2225;53.568;13.266;2022-09-12T16:47:23;4.90;;;1.83;;
4424;SDS011;2225;53.568;13.266;2022-09-12T16:49:50;4.90;;;2.00;;
4424;SDS011;2225;53.568;13.266;2022-09-12T16:52:17;5.73;;;1.90;;
4424;SDS011;2225;53.568;13.266;2022-09-12T16:54:44;5.00;;;1.87;;
4424;SDS011;2225;53.568;13.266;2022-09-12T16:57:11;7.30;;;2.70;;
4424;SDS011;2225;53.568;13.266;2022-09-12T16:59:38;5.37;;;2.23;;
4424;SDS011;2225;53.568;13.266;2022-09-12T17:02:05;4.67;;;2.07;;
4424;SDS011;2225;53.568;13.266;2022-09-12T17:04:33;5.17;;;2.10;;
4424;SDS011;2225;53.568;13.266;2022-09-12T17:07:00;6.30;;;2.60;;
4424;SDS011;2225;53.568;13.266;2022-09-12T17:09:27;11.77;;;3.40;;
4424;SDS011;2225;53.568;13.266;2022-09-12T17:11:54;10.27;;;2.87;;
4424;SDS011;2225;53.568;13.266;2022-09-12T17:14:22;5.60;;;2.40;;
4424;SDS011;2225;53.568;13.266;2022-09-12T17:16:50;7.93;;;2.80;;
4424;SDS011;2225;53.568;13.266;2022-09-12T17:19:19;6.73;;;2.93;;
4424;SDS011;2225;53.568;13.266;2022-09-12T17:21:51;8.67;;;3.87;;
4424;SDS011;2225;53.568;13.266;2022-09-12T17:24:19;7.80;;;3.00;;
4424;SDS011;2225;53.568;13.266;2022-09-12T17:26:46;8.83;;;2.30;;
4424;SDS011;2225;53.568;13.266;2022-09-12T17:29:14;7.93;;;2.30;;
4424;SDS011;2225;53.568;13.266;2022-09-12T17:31:42;5.30;;;2.37;;
4424;SDS011;2225;53.568;13.266;2022-09-12T17:34:10;5.90;;;2.60;;
4424;SDS011;2225;53.568;13.266;2022-09-12T17:36:41;6.20;;;2.60;;
4424;SDS011;2225;53.568;13.266;2022-09-12T17:39:10;10.80;;;2.93;;
4424;SDS011;2225;53.568;13.266;2022-09-12T17:41:38;5.73;;;2.90;;
4424;SDS011;2225;53.568;13.266;2022-09-12T17:44:08;7.93;;;3.00;;
4424;SDS011;2225;53.568;13.266;2022-09-12T17:46:38;8.53;;;3.27;;
4424;SDS011;2225;53.568;13.266;2022-09-12T17:49:06;7.27;;;3.27;;
4424;SDS011;2225;53.568;13.266;2022-09-12T17:51:37;6.63;;;3.50;;
4424;SDS011;2225;53.568;13.266;2022-09-12T17:54:06;5.50;;;2.77;;
4424;SDS011;2225;53.568;13.266;2022-09-12T17:56:38;5.60;;;2.80;;
4424;SDS011;2225;53.568;13.266;2022-09-12T17:59:05;6.60;;;2.60;;
4424;SDS011;2225;53.568;13.266;2022-09-12T18:01:35;20.43;;;2.90;;
4424;SDS011;2225;53.568;13.266;2022-09-12T18:04:20;5.77;;;2.60;;
4424;SDS011;2225;53.568;13.266;2022-09-12T18:06:47;6.70;;;3.37;;
4424;SDS011;2225;53.568;13.266;2022-09-12T18:09:18;6.13;;;2.80;;
4424;SDS011;2225;53.568;13.266;2022-09-12T18:11:48;5.57;;;2.67;;
4424;SDS011;2225;53.568;13.266;2022-09-12T18:14:16;6.30;;;2.70;;
4424;SDS011;2225;53.568;13.266;2022-09-12T18:16:44;8.50;;;3.17;;